createdAt,value
2018-12-22T00:00:41.215Z,9.12
2018-12-22T00:01:41.203Z,9.09
2018-12-22T00:02:41.193Z,9.12
2018-12-22T00:03:41.181Z,9.12
2018-12-22T00:04:41.170Z,9.06
2018-12-22T00:05:41.160Z,9.15
2018-12-22T00:06:41.150Z,9.10
2018-12-22T00:07:41.139Z,9.12
2018-12-22T00:08:41.126Z,9.10
2018-12-22T00:09:41.115Z,9.16
2018-12-22T00:10:41.105Z,9.16
2018-12-22T00:11:41.093Z,9.10
2018-12-22T00:12:41.082Z,9.01
2018-12-22T00:13:41.070Z,9.05
2018-12-22T00:14:41.062Z,9.05
2018-12-22T00:15:41.051Z,9.13
2018-12-22T00:16:41.039Z,9.09
2018-12-22T00:17:41.028Z,9.06
2018-12-22T00:18:41.020Z,9.04
2018-12-22T00:19:41.005Z,9.02
2018-12-22T00:20:40.994Z,9.09
2018-12-22T00:21:40.984Z,9.05
2018-12-22T00:22:40.973Z,9.04
2018-12-22T00:23:40.961Z,9.13
2018-12-22T00:24:40.951Z,9.10
2018-12-22T00:25:40.939Z,9.09
2018-12-22T00:26:40.929Z,9.02
2018-12-22T00:27:40.918Z,8.97
2018-12-22T00:28:40.907Z,9.02
2018-12-22T00:29:40.898Z,8.99
2018-12-22T00:30:40.887Z,9.10
2018-12-22T00:31:40.873Z,9.01
2018-12-22T00:32:40.863Z,8.96
2018-12-22T00:33:40.856Z,9.01
2018-12-22T00:34:40.841Z,8.99
2018-12-22T00:35:40.840Z,9.01
2018-12-22T00:36:40.819Z,8.93
2018-12-22T00:37:40.807Z,9.01
2018-12-22T00:38:40.799Z,8.99
2018-12-22T00:39:40.786Z,8.96
2018-12-22T00:40:40.774Z,8.94
2018-12-22T00:41:40.764Z,8.94
2018-12-22T00:42:40.753Z,8.86
2018-12-22T00:43:40.741Z,8.87
2018-12-22T00:44:40.732Z,8.91
2018-12-22T00:45:40.721Z,8.88
2018-12-22T00:46:40.709Z,8.93
2018-12-22T00:47:40.700Z,8.90
2018-12-22T00:48:40.686Z,8.90
2018-12-22T00:49:40.675Z,8.87
2018-12-22T00:50:40.666Z,8.90
2018-12-22T00:51:40.654Z,8.86
2018-12-22T00:52:40.643Z,8.88
2018-12-22T00:53:40.632Z,8.91
2018-12-22T00:54:58.781Z,8.84
2018-12-22T00:56:22.658Z,8.87
2018-12-22T00:57:22.638Z,8.86
2018-12-22T00:58:30.500Z,8.86
2018-12-22T00:59:23.615Z,8.75
2018-12-22T01:00:22.605Z,8.81
2018-12-22T01:01:22.594Z,8.75
2018-12-22T01:02:22.582Z,8.72
2018-12-22T01:03:22.572Z,8.84
2018-12-22T01:04:22.560Z,8.78
2018-12-22T01:05:22.549Z,8.84
2018-12-22T01:06:22.540Z,8.75
2018-12-22T01:07:22.527Z,8.78
2018-12-22T01:08:22.516Z,8.76
2018-12-22T01:09:22.508Z,8.76
2018-12-22T01:10:22.494Z,8.75
2018-12-22T01:11:22.482Z,8.81
2018-12-22T01:12:22.474Z,8.78
2018-12-22T01:13:22.460Z,8.72
2018-12-22T01:14:22.449Z,8.76
2018-12-22T01:15:22.437Z,8.73
2018-12-22T01:16:22.427Z,8.76
2018-12-22T01:17:22.419Z,8.79
2018-12-22T01:18:22.403Z,8.81
2018-12-22T01:19:22.394Z,8.73
2018-12-22T01:20:22.382Z,8.76
2018-12-22T01:21:22.376Z,8.75
2018-12-22T01:22:22.361Z,8.75
2018-12-22T01:23:22.349Z,8.84
2018-12-22T01:24:22.338Z,8.79
2018-12-22T01:25:22.329Z,8.73
2018-12-22T01:26:22.315Z,8.79
2018-12-22T01:27:22.304Z,8.79
2018-12-22T01:28:22.295Z,8.83
2018-12-22T01:29:22.281Z,8.84
2018-12-22T01:30:22.270Z,8.73
2018-12-22T01:31:22.258Z,8.75
2018-12-22T01:32:22.247Z,8.75
2018-12-22T01:33:22.236Z,8.81
2018-12-22T01:34:22.227Z,8.84
2018-12-22T01:36:49.168Z,8.90
2018-12-22T01:38:07.281Z,8.87
2018-12-22T01:40:57.627Z,8.83
2018-12-22T01:42:17.240Z,8.83
2018-12-22T01:43:39.140Z,8.90
2018-12-22T01:44:39.129Z,8.84
2018-12-22T01:46:20.671Z,8.88
2018-12-22T01:47:20.654Z,8.86
2018-12-22T01:49:02.199Z,8.76
2018-12-22T01:50:02.177Z,8.78
2018-12-22T01:51:44.306Z,8.75
2018-12-22T01:52:44.294Z,8.78
2018-12-22T01:53:44.282Z,8.76
2018-12-22T01:54:44.272Z,8.66
2018-12-22T01:55:44.260Z,8.71
2018-12-22T01:56:44.250Z,8.62
2018-12-22T01:57:44.238Z,8.62
2018-12-22T01:58:47.913Z,8.63
2018-12-22T01:59:44.215Z,8.50
2018-12-22T02:00:44.206Z,8.55
2018-12-22T02:01:44.194Z,8.58
2018-12-22T02:02:44.183Z,8.50
2018-12-22T02:03:44.172Z,8.44
2018-12-22T02:04:44.159Z,8.44
2018-12-22T02:05:44.151Z,8.40
2018-12-22T02:06:44.144Z,8.42
2018-12-22T02:07:44.126Z,8.40
2018-12-22T02:08:44.183Z,8.44
2018-12-22T02:09:44.106Z,8.44
2018-12-22T02:10:44.095Z,8.37
2018-12-22T02:11:44.082Z,8.44
2018-12-22T02:12:44.070Z,8.51
2018-12-22T02:13:44.060Z,8.44
2018-12-22T02:14:44.048Z,8.32
2018-12-22T02:15:44.037Z,8.39
2018-12-22T02:16:44.026Z,8.40
2018-12-22T02:17:44.014Z,8.36
2018-12-22T02:18:44.003Z,8.32
2018-12-22T02:19:43.992Z,8.35
2018-12-22T02:20:43.980Z,8.30
2018-12-22T02:21:43.970Z,8.33
2018-12-22T02:22:43.958Z,8.32
2018-12-22T02:23:43.947Z,8.33
2018-12-22T02:24:43.940Z,8.39
2018-12-22T02:25:43.926Z,8.33
2018-12-22T02:26:43.914Z,8.29
2018-12-22T02:27:43.909Z,8.37
2018-12-22T02:28:43.892Z,8.36
2018-12-22T02:29:43.887Z,8.32
2018-12-22T02:30:43.870Z,8.37
2018-12-22T02:31:43.864Z,8.33
2018-12-22T02:32:43.848Z,8.36
2018-12-22T02:33:43.854Z,8.37
2018-12-22T02:34:43.824Z,8.32
2018-12-22T02:35:43.812Z,8.32
2018-12-22T02:36:43.803Z,8.29
2018-12-22T02:37:43.795Z,8.33
2018-12-22T02:38:43.790Z,8.22
2018-12-22T02:39:43.768Z,8.22
2018-12-22T02:40:43.768Z,8.30
2018-12-22T02:41:43.745Z,8.25
2018-12-22T02:42:43.735Z,8.25
2018-12-22T02:43:43.723Z,8.20
2018-12-22T02:44:43.711Z,8.22
2018-12-22T02:45:43.702Z,8.18
2018-12-22T02:46:43.690Z,8.15
2018-12-22T02:47:43.681Z,8.18
2018-12-22T02:48:43.669Z,8.22
2018-12-22T02:49:43.657Z,8.18
2018-12-22T02:50:43.645Z,8.25
2018-12-22T02:51:43.632Z,8.22
2018-12-22T02:52:43.628Z,8.18
2018-12-22T02:53:43.612Z,8.18
2018-12-22T02:54:43.601Z,8.20
2018-12-22T02:55:43.590Z,8.25
2018-12-22T02:56:43.578Z,8.28
2018-12-22T02:57:43.568Z,8.21
2018-12-22T02:58:43.556Z,8.26
2018-12-22T02:59:43.545Z,8.22
2018-12-22T03:00:43.535Z,8.29
2018-12-22T03:01:43.522Z,8.18
2018-12-22T03:02:43.511Z,8.18
2018-12-22T03:03:43.501Z,8.17
2018-12-22T03:04:43.488Z,8.22
2018-12-22T03:05:43.477Z,8.17
2018-12-22T03:06:43.465Z,8.20
2018-12-22T03:07:43.454Z,8.22
2018-12-22T03:08:43.444Z,8.20
2018-12-22T03:09:43.433Z,8.17
2018-12-22T03:10:43.424Z,8.17
2018-12-22T03:11:43.410Z,8.21
2018-12-22T03:12:43.398Z,8.18
2018-12-22T03:13:43.390Z,8.17
2018-12-22T03:14:43.378Z,8.18
2018-12-22T03:15:43.364Z,8.18
2018-12-22T03:16:43.353Z,8.18
2018-12-22T03:17:43.349Z,8.18
2018-12-22T03:18:43.331Z,8.15
2018-12-22T03:19:43.340Z,8.21
2018-12-22T03:20:43.310Z,8.21
2018-12-22T03:21:43.302Z,8.17
2018-12-22T03:22:43.287Z,8.14
2018-12-22T03:23:43.275Z,8.17
2018-12-22T03:24:43.263Z,8.20
2018-12-22T03:25:43.251Z,8.18
2018-12-22T03:26:43.241Z,8.15
2018-12-22T03:27:43.229Z,8.14
2018-12-22T03:28:43.224Z,8.18
2018-12-22T03:29:43.214Z,8.20
2018-12-22T03:30:43.198Z,8.14
2018-12-22T03:31:43.187Z,8.20
2018-12-22T03:32:43.180Z,8.14
2018-12-22T03:33:43.166Z,8.17
2018-12-22T03:34:43.152Z,8.18
2018-12-22T03:35:43.143Z,8.10
2018-12-22T03:36:43.129Z,8.18
2018-12-22T03:37:43.118Z,8.18
2018-12-22T03:38:43.112Z,8.10
2018-12-22T03:39:43.096Z,8.03
2018-12-22T03:40:43.085Z,8.11
2018-12-22T03:41:43.073Z,8.12
2018-12-22T03:42:43.061Z,8.08
2018-12-22T03:43:43.052Z,8.04
2018-12-22T03:44:43.044Z,8.14
2018-12-22T03:45:43.028Z,8.08
2018-12-22T03:46:43.018Z,8.08
2018-12-22T03:47:43.007Z,8.03
2018-12-22T03:48:42.994Z,8.10
2018-12-22T03:49:42.983Z,8.08
2018-12-22T03:50:42.971Z,8.07
2018-12-22T03:51:42.960Z,8.11
2018-12-22T03:52:42.949Z,8.08
2018-12-22T03:53:42.940Z,8.11
2018-12-22T03:54:42.926Z,8.08
2018-12-22T03:55:42.916Z,8.07
2018-12-22T03:56:42.906Z,8.11
2018-12-22T03:57:42.892Z,8.04
2018-12-22T03:58:42.885Z,8.12
2018-12-22T03:59:42.870Z,8.02
2018-12-22T04:00:42.860Z,7.99
2018-12-22T04:01:42.849Z,8.04
2018-12-22T04:02:42.838Z,8.00
2018-12-22T04:03:42.825Z,8.00
2018-12-22T04:04:42.816Z,7.97
2018-12-22T04:05:42.811Z,7.96
2018-12-22T04:06:42.792Z,8.08
2018-12-22T04:07:42.781Z,8.02
2018-12-22T04:08:42.770Z,8.00
2018-12-22T04:09:42.758Z,7.96
2018-12-22T04:10:42.746Z,7.93
2018-12-22T04:11:42.737Z,7.96
2018-12-22T04:12:42.723Z,7.94
2018-12-22T04:13:42.712Z,8.02
2018-12-22T04:14:42.701Z,7.94
2018-12-22T04:15:42.690Z,7.94
2018-12-22T04:16:42.680Z,7.99
2018-12-22T04:17:42.668Z,8.02
2018-12-22T04:18:42.656Z,7.99
2018-12-22T04:19:42.647Z,7.97
2018-12-22T04:20:42.633Z,7.97
2018-12-22T04:21:42.623Z,7.96
2018-12-22T04:22:42.613Z,7.94
2018-12-22T04:23:42.601Z,7.97
2018-12-22T04:24:42.592Z,7.92
2018-12-22T04:25:42.580Z,7.90
2018-12-22T04:26:42.566Z,7.87
2018-12-22T04:27:42.556Z,7.92
2018-12-22T04:28:42.543Z,7.85
2018-12-22T04:29:42.531Z,7.93
2018-12-22T04:30:42.528Z,7.82
2018-12-22T04:31:42.511Z,7.84
2018-12-22T04:32:42.500Z,7.85
2018-12-22T04:33:42.508Z,7.90
2018-12-22T04:34:42.483Z,7.82
2018-12-22T04:35:42.466Z,7.84
2018-12-22T04:36:42.453Z,7.85
2018-12-22T04:37:42.444Z,7.89
2018-12-22T04:38:42.431Z,7.92
2018-12-22T04:39:42.425Z,7.89
2018-12-22T04:40:42.410Z,7.92
2018-12-22T04:41:42.403Z,7.90
2018-12-22T04:42:42.387Z,7.85
2018-12-22T04:43:42.376Z,7.89
2018-12-22T04:44:42.365Z,7.92
2018-12-22T04:45:42.353Z,7.79
2018-12-22T04:46:42.341Z,7.92
2018-12-22T04:47:42.338Z,7.89
2018-12-22T04:48:42.321Z,7.81
2018-12-22T04:49:42.309Z,7.90
2018-12-22T04:50:42.297Z,7.87
2018-12-22T04:51:42.286Z,7.85
2018-12-22T04:52:42.276Z,7.89
2018-12-22T04:53:42.263Z,7.89
2018-12-22T04:54:42.254Z,7.84
2018-12-22T04:55:42.240Z,7.92
2018-12-22T04:56:42.232Z,7.87
2018-12-22T04:57:42.218Z,7.92
2018-12-22T04:58:42.207Z,7.90
2018-12-22T04:59:43.170Z,7.85
2018-12-22T05:00:42.184Z,7.85
2018-12-22T05:01:42.172Z,7.78
2018-12-22T05:02:42.162Z,7.85
2018-12-22T05:03:42.154Z,7.74
2018-12-22T05:04:42.139Z,7.92
2018-12-22T05:05:42.128Z,7.78
2018-12-22T05:06:42.121Z,7.81
2018-12-22T05:07:42.107Z,7.87
2018-12-22T05:08:42.094Z,7.87
2018-12-22T05:09:42.082Z,7.82
2018-12-22T05:10:42.074Z,7.89
2018-12-22T05:11:42.060Z,7.84
2018-12-22T05:12:42.054Z,7.82
2018-12-22T05:13:42.150Z,7.74
2018-12-22T05:14:42.028Z,7.87
2018-12-22T05:15:42.018Z,7.87
2018-12-22T05:16:42.007Z,7.84
2018-12-22T05:17:41.995Z,7.72
2018-12-22T05:18:41.982Z,7.81
2018-12-22T05:19:41.971Z,7.72
2018-12-22T05:20:42.000Z,7.75
2018-12-22T05:21:41.949Z,7.75
2018-12-22T05:22:41.936Z,7.79
2018-12-22T05:23:41.925Z,7.79
2018-12-22T05:24:41.915Z,7.77
2018-12-22T05:25:41.903Z,7.75
2018-12-22T05:26:41.892Z,7.78
2018-12-22T05:27:41.881Z,7.72
2018-12-22T05:28:41.871Z,7.74
2018-12-22T05:29:41.858Z,7.72
2018-12-22T05:30:41.847Z,7.81
2018-12-22T05:31:41.835Z,7.75
2018-12-22T05:32:41.824Z,7.74
2018-12-22T05:33:41.814Z,7.75
2018-12-22T05:34:41.803Z,7.81
2018-12-22T05:35:41.791Z,7.72
2018-12-22T05:36:41.781Z,7.74
2018-12-22T05:37:41.769Z,7.72
2018-12-22T05:38:41.756Z,7.72
2018-12-22T05:39:41.751Z,7.75
2018-12-22T05:40:41.734Z,7.69
2018-12-22T05:41:41.724Z,7.74
2018-12-22T05:42:41.714Z,7.74
2018-12-22T05:43:41.700Z,7.72
2018-12-22T05:44:41.693Z,7.72
2018-12-22T05:45:41.679Z,7.77
2018-12-22T05:46:41.666Z,7.72
2018-12-22T05:47:41.656Z,7.71
2018-12-22T05:48:41.646Z,7.69
2018-12-22T05:49:41.632Z,7.63
2018-12-22T05:50:41.622Z,7.75
2018-12-22T05:51:41.613Z,7.75
2018-12-22T05:52:41.599Z,7.75
2018-12-22T05:53:41.588Z,7.74
2018-12-22T05:54:41.579Z,7.78
2018-12-22T05:55:41.566Z,7.72
2018-12-22T05:56:41.556Z,7.75
2018-12-22T05:57:41.548Z,7.66
2018-12-22T05:58:41.534Z,7.69
2018-12-22T05:59:41.522Z,7.71
2018-12-22T06:00:41.550Z,7.67
2018-12-22T06:01:41.500Z,7.69
2018-12-22T06:02:41.488Z,7.71
2018-12-22T06:03:41.477Z,7.74
2018-12-22T06:04:41.466Z,7.67
2018-12-22T06:05:41.457Z,7.66
2018-12-22T06:06:41.445Z,7.67
2018-12-22T06:07:41.432Z,7.66
2018-12-22T06:08:41.421Z,7.77
2018-12-22T06:09:41.411Z,7.67
2018-12-22T06:10:41.398Z,7.67
2018-12-22T06:11:41.388Z,7.60
2018-12-22T06:12:41.376Z,7.72
2018-12-22T06:13:41.366Z,7.60
2018-12-22T06:14:41.354Z,7.69
2018-12-22T06:15:41.343Z,7.77
2018-12-22T06:16:41.333Z,7.60
2018-12-22T06:17:41.319Z,7.60
2018-12-22T06:18:41.310Z,7.75
2018-12-22T06:19:41.298Z,7.69
2018-12-22T06:20:41.287Z,7.60
2018-12-22T06:21:41.276Z,7.66
2018-12-22T06:22:41.264Z,7.62
2018-12-22T06:23:41.253Z,7.67
2018-12-22T06:24:41.241Z,7.58
2018-12-22T06:25:41.232Z,7.60
2018-12-22T06:26:41.220Z,7.59
2018-12-22T06:27:41.209Z,7.67
2018-12-22T06:28:41.197Z,7.67
2018-12-22T06:29:41.187Z,7.63
2018-12-22T06:30:41.175Z,7.62
2018-12-22T06:31:41.163Z,7.71
2018-12-22T06:32:41.153Z,7.72
2018-12-22T06:33:41.141Z,7.63
2018-12-22T06:34:41.129Z,7.62
2018-12-22T06:35:41.132Z,7.69
2018-12-22T06:36:41.107Z,7.66
2018-12-22T06:37:41.096Z,7.59
2018-12-22T06:38:41.085Z,7.71
2018-12-22T06:39:41.108Z,7.63
2018-12-22T06:40:41.063Z,7.60
2018-12-22T06:41:41.053Z,7.69
2018-12-22T06:42:41.040Z,7.62
2018-12-22T06:43:41.029Z,7.71
2018-12-22T06:44:41.024Z,7.63
2018-12-22T06:45:41.006Z,7.67
2018-12-22T06:46:40.997Z,7.60
2018-12-22T06:47:40.984Z,7.66
2018-12-22T06:48:40.972Z,7.75
2018-12-22T06:49:40.965Z,7.62
2018-12-22T06:50:40.951Z,7.66
2018-12-22T06:51:40.938Z,7.71
2018-12-22T06:52:40.928Z,7.63
2018-12-22T06:53:42.041Z,7.72
2018-12-22T06:54:59.060Z,7.63
2018-12-22T06:56:22.442Z,7.62
2018-12-22T06:57:22.432Z,7.67
2018-12-22T06:58:22.418Z,7.67
2018-12-22T06:59:22.408Z,7.62
2018-12-22T07:00:22.399Z,7.62
2018-12-22T07:01:22.387Z,7.63
2018-12-22T07:02:22.374Z,7.62
2018-12-22T07:03:22.365Z,7.62
2018-12-22T07:04:22.351Z,7.60
2018-12-22T07:05:22.341Z,7.62
2018-12-22T07:06:22.330Z,7.63
2018-12-22T07:07:22.317Z,7.66
2018-12-22T07:08:22.306Z,7.62
2018-12-22T07:09:22.296Z,7.60
2018-12-22T07:10:22.285Z,7.62
2018-12-22T07:11:22.275Z,7.52
2018-12-22T07:12:22.263Z,7.63
2018-12-22T07:13:22.252Z,7.59
2018-12-22T07:14:22.245Z,7.55
2018-12-22T07:15:22.231Z,7.58
2018-12-22T07:16:22.217Z,7.55
2018-12-22T07:17:22.207Z,7.71
2018-12-22T07:18:22.196Z,7.63
2018-12-22T07:19:22.185Z,7.55
2018-12-22T07:20:22.174Z,7.63
2018-12-22T07:21:22.162Z,7.60
2018-12-22T07:22:23.427Z,7.56
2018-12-22T07:23:22.140Z,7.55
2018-12-22T07:24:22.130Z,7.58
2018-12-22T07:25:22.116Z,7.53
2018-12-22T07:26:22.107Z,7.49
2018-12-22T07:27:22.093Z,7.55
2018-12-22T07:28:22.083Z,7.58
2018-12-22T07:29:22.072Z,7.63
2018-12-22T07:30:26.117Z,7.63
2018-12-22T07:31:22.051Z,7.53
2018-12-22T07:32:22.058Z,7.55
2018-12-22T07:33:22.028Z,7.56
2018-12-22T07:34:22.018Z,7.53
2018-12-22T07:35:22.006Z,7.63
2018-12-22T07:36:21.994Z,7.60
2018-12-22T07:37:21.984Z,7.60
2018-12-22T07:38:21.971Z,7.56
2018-12-22T07:39:21.960Z,7.62
2018-12-22T07:40:21.949Z,7.52
2018-12-22T07:41:21.938Z,7.60
2018-12-22T07:42:21.926Z,7.59
2018-12-22T07:43:21.915Z,7.58
2018-12-22T07:44:21.903Z,7.59
2018-12-22T07:45:21.891Z,7.53
2018-12-22T07:46:21.886Z,7.62
2018-12-22T07:47:21.872Z,7.52
2018-12-22T07:48:21.859Z,7.56
2018-12-22T07:49:21.851Z,7.72
2018-12-22T07:50:21.838Z,7.74
2018-12-22T07:51:21.824Z,7.75
2018-12-22T07:52:21.814Z,7.75
2018-12-22T07:53:21.802Z,7.69
2018-12-22T07:54:21.901Z,7.90
2018-12-22T07:55:21.782Z,7.87
2018-12-22T07:56:21.769Z,7.89
2018-12-22T07:57:21.757Z,7.85
2018-12-22T07:58:21.747Z,7.92
2018-12-22T07:59:21.735Z,8.02
2018-12-22T08:00:21.724Z,7.81
2018-12-22T08:01:21.713Z,7.87
2018-12-22T08:02:21.703Z,7.84
2018-12-22T08:03:21.691Z,7.89
2018-12-22T08:04:21.681Z,7.92
2018-12-22T08:05:21.667Z,7.78
2018-12-22T08:06:21.656Z,7.77
2018-12-22T08:07:21.645Z,7.78
2018-12-22T08:08:23.625Z,7.81
2018-12-22T08:09:21.623Z,7.77
2018-12-22T08:10:21.615Z,7.81
2018-12-22T08:11:21.600Z,7.71
2018-12-22T08:12:21.589Z,7.72
2018-12-22T08:13:21.578Z,7.74
2018-12-22T08:14:21.573Z,7.71
2018-12-22T08:15:21.556Z,7.77
2018-12-22T08:16:21.543Z,7.60
2018-12-22T08:17:21.533Z,7.62
2018-12-22T08:18:21.522Z,7.69
2018-12-22T08:19:21.511Z,7.72
2018-12-22T08:20:21.500Z,7.72
2018-12-22T08:21:21.488Z,7.69
2018-12-22T08:22:21.477Z,7.60
2018-12-22T08:23:21.468Z,7.63
2018-12-22T08:24:21.454Z,7.63
2018-12-22T08:25:21.445Z,7.66
2018-12-22T08:26:21.431Z,7.58
2018-12-22T08:27:21.422Z,7.53
2018-12-22T08:28:21.410Z,7.59
2018-12-22T08:29:21.413Z,7.59
2018-12-22T08:30:21.387Z,7.58
2018-12-22T08:31:23.105Z,7.60
2018-12-22T08:32:21.370Z,7.52
2018-12-22T08:33:21.355Z,7.53
2018-12-22T08:34:21.350Z,7.53
2018-12-22T08:35:21.331Z,7.53
2018-12-22T08:36:21.320Z,7.52
2018-12-22T08:37:21.319Z,7.56
2018-12-22T08:38:21.341Z,7.47
2018-12-22T08:39:21.290Z,7.52
2018-12-22T08:40:21.276Z,7.41
2018-12-22T08:41:21.264Z,7.47
2018-12-22T08:42:21.369Z,7.45
2018-12-22T08:43:21.242Z,7.42
2018-12-22T08:44:21.279Z,7.45
2018-12-22T08:45:21.221Z,7.42
2018-12-22T08:46:21.211Z,7.47
2018-12-22T08:47:21.197Z,7.66
2018-12-22T08:48:21.187Z,7.75
2018-12-22T08:49:21.179Z,7.74
2018-12-22T08:50:21.165Z,7.72
2018-12-22T08:51:21.156Z,7.90
2018-12-22T08:52:21.143Z,7.99
2018-12-22T08:53:21.129Z,8.04
2018-12-22T08:54:21.119Z,8.14
2018-12-22T08:55:21.111Z,8.17
2018-12-22T08:56:21.101Z,8.30
2018-12-22T08:57:21.086Z,8.32
2018-12-22T08:58:21.079Z,8.40
2018-12-22T08:59:21.065Z,8.48
2018-12-22T09:00:21.051Z,8.50
2018-12-22T09:01:21.039Z,8.54
2018-12-22T09:02:21.040Z,8.50
2018-12-22T09:03:21.019Z,8.47
2018-12-22T09:04:21.006Z,8.33
2018-12-22T09:05:20.997Z,8.30
2018-12-22T09:06:20.986Z,8.33
2018-12-22T09:07:20.972Z,8.36
2018-12-22T09:08:20.962Z,8.37
2018-12-22T09:09:20.951Z,8.35
2018-12-22T09:10:20.939Z,8.29
2018-12-22T09:11:20.927Z,8.33
2018-12-22T09:12:20.915Z,8.20
2018-12-22T09:13:21.178Z,8.28
2018-12-22T09:14:20.894Z,8.36
2018-12-22T09:15:20.883Z,8.33
2018-12-22T09:16:20.872Z,8.26
2018-12-22T09:17:20.860Z,8.22
2018-12-22T09:18:20.857Z,8.26
2018-12-22T09:19:20.838Z,8.28
2018-12-22T09:20:20.828Z,8.17
2018-12-22T09:21:20.815Z,8.15
2018-12-22T09:22:20.804Z,8.00
2018-12-22T09:23:20.793Z,8.00
2018-12-22T09:24:20.782Z,8.02
2018-12-22T09:25:20.771Z,7.94
2018-12-22T09:26:20.759Z,8.03
2018-12-22T09:27:20.748Z,8.02
2018-12-22T09:28:20.737Z,8.00
2018-12-22T09:29:20.858Z,7.84
2018-12-22T09:30:20.715Z,7.87
2018-12-22T09:31:20.704Z,7.90
2018-12-22T09:32:20.695Z,7.82
2018-12-22T09:33:20.683Z,7.87
2018-12-22T09:34:20.670Z,7.81
2018-12-22T09:35:20.659Z,7.79
2018-12-22T09:36:20.647Z,7.75
2018-12-22T09:37:20.635Z,7.74
2018-12-22T09:38:20.627Z,7.78
2018-12-22T09:39:20.614Z,7.75
2018-12-22T09:40:20.602Z,7.74
2018-12-22T09:41:20.591Z,7.75
2018-12-22T09:42:20.580Z,7.67
2018-12-22T09:43:20.571Z,7.66
2018-12-22T09:44:20.621Z,7.72
2018-12-22T09:45:20.546Z,7.71
2018-12-22T09:46:20.537Z,7.63
2018-12-22T09:47:20.528Z,7.63
2018-12-22T09:48:20.514Z,7.69
2018-12-22T09:49:20.502Z,7.67
2018-12-22T09:50:20.492Z,7.60
2018-12-22T09:51:20.480Z,7.56
2018-12-22T09:52:20.468Z,7.53
2018-12-22T09:53:20.457Z,7.58
2018-12-22T09:54:20.447Z,7.53
2018-12-22T09:55:20.434Z,7.55
2018-12-22T09:56:20.424Z,7.50
2018-12-22T09:57:20.413Z,7.60
2018-12-22T09:58:20.403Z,7.56
2018-12-22T09:59:20.407Z,7.55
2018-12-22T10:00:20.378Z,7.53
2018-12-22T10:01:20.366Z,7.52
2018-12-22T10:02:20.356Z,7.55
2018-12-22T10:03:20.343Z,7.52
2018-12-22T10:04:20.333Z,7.55
2018-12-22T10:05:20.323Z,7.47
2018-12-22T10:06:20.316Z,7.49
2018-12-22T10:07:20.299Z,7.45
2018-12-22T10:08:20.289Z,7.44
2018-12-22T10:09:20.276Z,7.42
2018-12-22T10:10:20.265Z,7.42
2018-12-22T10:11:20.254Z,7.45
2018-12-22T10:12:20.246Z,7.41
2018-12-22T10:13:20.233Z,7.42
2018-12-22T10:14:20.226Z,7.42
2018-12-22T10:15:20.209Z,7.44
2018-12-22T10:16:20.199Z,7.45
2018-12-22T10:17:20.187Z,7.52
2018-12-22T10:18:20.176Z,7.56
2018-12-22T10:19:20.165Z,7.55
2018-12-22T10:20:20.157Z,7.56
2018-12-22T10:21:20.143Z,7.66
2018-12-22T10:22:20.132Z,7.62
2018-12-22T10:23:20.119Z,7.66
2018-12-22T10:24:20.113Z,7.56
2018-12-22T10:25:20.098Z,7.50
2018-12-22T10:26:20.086Z,7.53
2018-12-22T10:27:20.078Z,7.59
2018-12-22T10:28:20.066Z,7.55
2018-12-22T10:29:20.052Z,7.60
2018-12-22T10:30:20.043Z,7.53
2018-12-22T10:31:20.032Z,7.52
2018-12-22T10:32:20.019Z,7.38
2018-12-22T10:33:20.009Z,7.44
2018-12-22T10:34:19.998Z,7.41
2018-12-22T10:35:19.985Z,7.47
2018-12-22T10:36:19.973Z,7.45
2018-12-22T10:37:19.974Z,7.40
2018-12-22T10:38:19.955Z,7.42
2018-12-22T10:39:19.943Z,7.35
2018-12-22T10:40:19.931Z,7.38
2018-12-22T10:41:19.918Z,7.32
2018-12-22T10:42:19.908Z,7.42
2018-12-22T10:43:19.895Z,7.44
2018-12-22T10:44:19.885Z,7.41
2018-12-22T10:45:19.982Z,7.38
2018-12-22T10:46:19.864Z,7.41
2018-12-22T10:47:19.853Z,7.41
2018-12-22T10:48:19.839Z,7.35
2018-12-22T10:49:19.828Z,7.40
2018-12-22T10:50:19.816Z,7.40
2018-12-22T10:51:24.220Z,7.41
2018-12-22T10:52:19.795Z,7.45
2018-12-22T10:53:19.783Z,7.45
2018-12-22T10:54:19.772Z,7.34
2018-12-22T10:55:19.761Z,7.37
2018-12-22T10:56:19.754Z,7.32
2018-12-22T10:57:19.738Z,7.40
2018-12-22T10:58:19.729Z,7.44
2018-12-22T10:59:19.716Z,7.44
2018-12-22T11:00:19.703Z,7.32
2018-12-22T11:01:26.495Z,7.45
2018-12-22T11:02:20.681Z,7.37
2018-12-22T11:03:19.768Z,7.38
2018-12-22T11:04:19.662Z,7.40
2018-12-22T11:05:19.648Z,7.42
2018-12-22T11:06:19.637Z,7.42
2018-12-22T11:07:19.628Z,7.38
2018-12-22T11:08:19.618Z,7.37
2018-12-22T11:09:19.604Z,7.34
2018-12-22T11:10:19.594Z,7.41
2018-12-22T11:11:19.582Z,7.42
2018-12-22T11:12:19.570Z,7.44
2018-12-22T11:13:19.562Z,7.45
2018-12-22T11:14:19.625Z,7.45
2018-12-22T11:15:19.536Z,7.52
2018-12-22T11:16:19.527Z,7.52
2018-12-22T11:17:19.514Z,7.66
2018-12-22T11:18:19.503Z,7.53
2018-12-22T11:19:19.495Z,7.52
2018-12-22T11:20:19.479Z,7.67
2018-12-22T11:21:19.468Z,7.56
2018-12-22T11:22:19.459Z,7.69
2018-12-22T11:23:20.615Z,7.69
2018-12-22T11:24:19.436Z,7.72
2018-12-22T11:25:19.426Z,7.63
2018-12-22T11:26:19.413Z,7.62
2018-12-22T11:27:19.403Z,7.62
2018-12-22T11:28:19.389Z,7.71
2018-12-22T11:29:19.380Z,7.63
2018-12-22T11:30:19.368Z,7.56
2018-12-22T11:31:19.356Z,7.60
2018-12-22T11:32:19.344Z,7.53
2018-12-22T11:33:19.335Z,7.67
2018-12-22T11:34:19.323Z,7.59
2018-12-22T11:35:19.424Z,7.55
2018-12-22T11:36:19.300Z,7.55
2018-12-22T11:37:19.289Z,7.58
2018-12-22T11:38:19.277Z,7.52
2018-12-22T11:39:19.266Z,7.58
2018-12-22T11:40:19.255Z,7.59
2018-12-22T11:41:19.244Z,7.50
2018-12-22T11:42:19.237Z,7.55
2018-12-22T11:43:19.222Z,7.55
2018-12-22T11:44:19.209Z,7.63
2018-12-22T11:45:19.205Z,7.56
2018-12-22T11:46:19.194Z,7.47
2018-12-22T11:47:19.183Z,7.44
2018-12-22T11:48:19.190Z,7.40
2018-12-22T11:49:19.156Z,7.42
2018-12-22T11:50:19.158Z,7.44
2018-12-22T11:51:19.132Z,7.52
2018-12-22T11:52:19.120Z,7.52
2018-12-22T11:53:19.109Z,7.44
2018-12-22T11:54:19.099Z,7.50
2018-12-22T11:55:19.093Z,7.56
2018-12-22T11:56:19.075Z,7.52
2018-12-22T11:57:19.064Z,7.45
2018-12-22T11:58:19.053Z,7.50
2018-12-22T11:59:19.045Z,7.41
2018-12-22T12:00:19.034Z,7.41
2018-12-22T12:01:19.019Z,7.45
2018-12-22T12:02:19.009Z,7.44
2018-12-22T12:03:18.997Z,7.45
2018-12-22T12:04:18.986Z,7.44
2018-12-22T12:05:18.975Z,7.42
2018-12-22T12:06:18.964Z,7.45
2018-12-22T12:07:18.953Z,7.41
2018-12-22T12:08:18.943Z,7.45
2018-12-22T12:09:18.930Z,7.44
2018-12-22T12:10:18.919Z,7.53
2018-12-22T12:11:18.911Z,7.44
2018-12-22T12:12:18.898Z,7.49
2018-12-22T12:13:18.886Z,7.50
2018-12-22T12:14:18.876Z,7.55
2018-12-22T12:15:18.864Z,7.44
2018-12-22T12:16:18.855Z,7.37
2018-12-22T12:17:18.855Z,7.35
2018-12-22T12:18:18.835Z,7.29
2018-12-22T12:19:18.819Z,7.44
2018-12-22T12:20:18.810Z,7.42
2018-12-22T12:21:18.798Z,7.35
2018-12-22T12:22:18.786Z,7.34
2018-12-22T12:23:18.776Z,7.35
2018-12-22T12:24:18.825Z,7.26
2018-12-22T12:25:18.751Z,7.26
2018-12-22T12:26:18.742Z,7.17
2018-12-22T12:27:18.731Z,7.12
2018-12-22T12:28:18.717Z,7.07
2018-12-22T12:29:18.709Z,7.01
2018-12-22T12:30:18.694Z,6.95
2018-12-22T12:31:18.685Z,6.89
2018-12-22T12:32:18.672Z,6.90
2018-12-22T12:33:18.661Z,6.89
2018-12-22T12:34:18.653Z,6.86
2018-12-22T12:35:18.638Z,6.80
2018-12-22T12:36:18.628Z,6.77
2018-12-22T12:37:18.616Z,6.80
2018-12-22T12:38:18.604Z,6.72
2018-12-22T12:39:18.596Z,6.66
2018-12-22T12:40:18.607Z,6.66
2018-12-22T12:41:18.573Z,6.77
2018-12-22T12:42:18.561Z,6.80
2018-12-22T12:43:18.550Z,6.81
2018-12-22T12:44:18.538Z,6.80
2018-12-22T12:45:18.528Z,6.77
2018-12-22T12:46:18.516Z,6.73
2018-12-22T12:47:18.505Z,6.77
2018-12-22T12:48:18.494Z,6.84
2018-12-22T12:49:18.483Z,6.84
2018-12-22T12:50:18.472Z,6.86
2018-12-22T12:51:18.461Z,6.90
2018-12-22T12:52:18.449Z,6.89
2018-12-22T12:53:18.437Z,6.91
2018-12-22T12:54:18.427Z,6.90
2018-12-22T12:55:18.415Z,6.91
2018-12-22T12:56:18.406Z,6.98
2018-12-22T12:57:18.393Z,6.95
2018-12-22T12:58:18.384Z,6.95
2018-12-22T12:59:18.370Z,6.94
2018-12-22T13:00:18.358Z,6.94
2018-12-22T13:01:18.351Z,6.95
2018-12-22T13:02:18.341Z,6.89
2018-12-22T13:03:18.326Z,6.84
2018-12-22T13:04:18.316Z,6.91
2018-12-22T13:05:18.307Z,6.89
2018-12-22T13:06:18.294Z,6.72
2018-12-22T13:07:18.286Z,6.81
2018-12-22T13:08:18.272Z,6.69
2018-12-22T13:09:18.262Z,6.84
2018-12-22T13:10:18.247Z,6.77
2018-12-22T13:11:18.238Z,6.71
2018-12-22T13:12:18.226Z,6.77
2018-12-22T13:13:18.214Z,6.71
2018-12-22T13:14:18.205Z,6.72
2018-12-22T13:15:18.191Z,6.80
2018-12-22T13:16:18.180Z,6.73
2018-12-22T13:17:18.168Z,6.83
2018-12-22T13:18:18.158Z,6.73
2018-12-22T13:19:18.149Z,6.76
2018-12-22T13:20:18.139Z,6.76
2018-12-22T13:21:18.127Z,6.79
2018-12-22T13:22:18.119Z,6.77
2018-12-22T13:23:18.102Z,6.83
2018-12-22T13:24:18.603Z,6.77
2018-12-22T13:25:18.616Z,6.69
2018-12-22T13:26:18.068Z,6.69